sensor_id;sensor_type;location;lat;lon;timestamp;pressure;altitude;pressure_sealevel;temperature;humidity
46534;BME280;32260;52.008;4.752;2023-03-11T00:00:02;100848.69;;;2.92;58.42
46534;BME280;32260;52.008;4.752;2023-03-11T00:02:32;100850.44;;;2.90;57.95
46534;BME280;32260;52.008;4.752;2023-03-11T00:04:58;100846.91;;;2.88;58.55
46534;BME280;32260;52.008;4.752;2023-03-11T00:07:24;100852.16;;;2.87;58.19
46534;BME280;32260;52.008;4.752;2023-03-11T00:09:50;100849.47;;;2.85;58.74
46534;BME280;32260;52.008;4.752;2023-03-11T00:12:16;100849.47;;;2.82;58.35
46534;BME280;32260;52.008;4.752;2023-03-11T00:14:42;100850.38;;;2.84;58.72
46534;BME280;32260;52.008;4.752;2023-03-11T00:17:08;100846.00;;;2.83;58.73
46534;BME280;32260;52.008;4.752;2023-03-11T00:19:34;100855.59;;;2.84;58.71
46534;BME280;32260;52.008;4.752;2023-03-11T00:22:01;100857.34;;;2.85;59.13
46534;BME280;32260;52.008;4.752;2023-03-11T00:24:28;100862.63;;;2.87;59.50
46534;BME280;32260;52.008;4.752;2023-03-11T00:26:54;100868.72;;;2.89;59.17
46534;BME280;32260;52.008;4.752;2023-03-11T00:29:20;100867.03;;;2.92;59.32
46534;BME280;32260;52.008;4.752;2023-03-11T00:31:46;100885.41;;;2.99;59.76
46534;BME280;32260;52.008;4.752;2023-03-11T00:34:12;100887.19;;;3.00;59.39
46534;BME280;32260;52.008;4.752;2023-03-11T00:36:38;100889.84;;;3.03;59.81
46534;BME280;32260;52.008;4.752;2023-03-11T00:39:05;100896.84;;;3.05;59.35
46534;BME280;32260;52.008;4.752;2023-03-11T00:41:32;100892.50;;;3.07;59.02
46534;BME280;32260;52.008;4.752;2023-03-11T00:43:58;100895.16;;;3.09;58.81
46534;BME280;32260;52.008;4.752;2023-03-11T00:46:24;100894.25;;;3.08;58.63
46534;BME280;32260;52.008;4.752;2023-03-11T00:48:51;100900.41;;;3.09;59.29
46534;BME280;32260;52.008;4.752;2023-03-11T00:51:17;100902.09;;;3.07;58.74
46534;BME280;32260;52.008;4.752;2023-03-11T00:53:44;100908.25;;;3.09;58.45
46534;BME280;32260;52.008;4.752;2023-03-11T00:56:12;100900.41;;;3.12;58.82
46534;BME280;32260;52.008;4.752;2023-03-11T00:58:39;100904.81;;;3.15;58.97
46534;BME280;32260;52.008;4.752;2023-03-11T01:01:07;100899.56;;;3.15;58.71
46534;BME280;32260;52.008;4.752;2023-03-11T01:03:35;100910.94;;;3.17;58.59
46534;BME280;32260;52.008;4.752;2023-03-11T01:06:02;100906.56;;;3.14;58.26
46534;BME280;32260;52.008;4.752;2023-03-11T01:08:28;100906.59;;;3.19;58.35
46534;BME280;32260;52.008;4.752;2023-03-11T01:10:57;100915.34;;;3.21;58.68
46534;BME280;32260;52.008;4.752;2023-03-11T01:13:24;100911.88;;;3.22;58.93
46534;BME280;32260;52.008;4.752;2023-03-11T01:15:51;100910.16;;;3.24;59.29
46534;BME280;32260;52.008;4.752;2023-03-11T01:18:17;100918.88;;;3.24;58.91
46534;BME280;32260;52.008;4.752;2023-03-11T01:20:46;100921.50;;;3.24;58.84
46534;BME280;32260;52.008;4.752;2023-03-11T01:23:13;100919.72;;;3.22;58.98
46534;BME280;32260;52.008;4.752;2023-03-11T01:25:40;100919.72;;;3.20;59.40
46534;BME280;32260;52.008;4.752;2023-03-11T01:28:07;100924.84;;;3.13;58.00
46534;BME280;32260;52.008;4.752;2023-03-11T01:30:35;100915.22;;;3.10;58.36
46534;BME280;32260;52.008;4.752;2023-03-11T01:33:02;100926.50;;;3.03;57.55
46534;BME280;32260;52.008;4.752;2023-03-11T01:35:30;100929.06;;;2.98;58.24
46534;BME280;32260;52.008;4.752;2023-03-11T01:37:57;100934.22;;;2.95;58.96
46534;BME280;32260;52.008;4.752;2023-03-11T01:48:59;100928.00;;;2.85;58.38
46534;BME280;32260;52.008;4.752;2023-03-11T01:51:34;100926.34;;;2.90;59.06
46534;BME280;32260;52.008;4.752;2023-03-11T01:54:08;100935.13;;;2.94;58.57
46534;BME280;32260;52.008;4.752;2023-03-11T01:56:36;100941.19;;;2.93;57.58
46534;BME280;32260;52.008;4.752;2023-03-11T01:59:03;100935.13;;;2.96;58.80
46534;BME280;32260;52.008;4.752;2023-03-11T02:01:31;100931.66;;;2.98;57.34
46534;BME280;32260;52.008;4.752;2023-03-11T02:03:57;100932.59;;;3.03;57.05
46534;BME280;32260;52.008;4.752;2023-03-11T02:06:25;100931.75;;;3.06;55.73
46534;BME280;32260;52.008;4.752;2023-03-11T02:08:51;100937.06;;;3.12;57.63
46534;BME280;32260;52.008;4.752;2023-03-11T02:11:21;100941.50;;;3.18;56.62
46534;BME280;32260;52.008;4.752;2023-03-11T02:13:51;100939.75;;;3.17;56.70
46534;BME280;32260;52.008;4.752;2023-03-11T02:16:19;100941.47;;;3.15;56.01
46534;BME280;32260;52.008;4.752;2023-03-11T02:18:46;100942.28;;;3.11;55.82
46534;BME280;32260;52.008;4.752;2023-03-11T02:21:21;100944.06;;;3.13;55.32
46534;BME280;32260;52.008;4.752;2023-03-11T02:27:07;100944.06;;;3.13;56.14
46534;BME280;32260;52.008;4.752;2023-03-11T02:29:34;100947.44;;;3.03;56.59
46534;BME280;32260;52.008;4.752;2023-03-11T02:32:03;100938.63;;;2.98;57.20
46534;BME280;32260;52.008;4.752;2023-03-11T02:34:33;100947.31;;;2.94;57.39
46534;BME280;32260;52.008;4.752;2023-03-11T02:37:03;100940.28;;;2.89;57.53
46534;BME280;32260;52.008;4.752;2023-03-11T02:39:49;100937.69;;;2.92;57.26
46534;BME280;32260;52.008;4.752;2023-03-11T02:42:23;100938.44;;;2.84;57.58
46534;BME280;32260;52.008;4.752;2023-03-11T02:45:10;100938.50;;;2.87;57.97
46534;BME280;32260;52.008;4.752;2023-03-11T02:47:38;100938.31;;;2.73;57.53
46534;BME280;32260;52.008;4.752;2023-03-11T02:50:06;100939.19;;;2.72;58.47
46534;BME280;32260;52.008;4.752;2023-03-11T02:52:34;100936.47;;;2.66;58.49
46534;BME280;32260;52.008;4.752;2023-03-11T02:55:00;100946.88;;;2.63;58.57
46534;BME280;32260;52.008;4.752;2023-03-11T02:57:27;100947.69;;;2.58;58.86
46534;BME280;32260;52.008;4.752;2023-03-11T02:59:53;100950.22;;;2.52;59.13
46534;BME280;32260;52.008;4.752;2023-03-11T03:02:19;100950.13;;;2.46;59.41
46534;BME280;32260;52.008;4.752;2023-03-11T03:04:45;100957.03;;;2.41;59.71
46534;BME280;32260;52.008;4.752;2023-03-11T03:07:11;100954.34;;;2.38;59.31
46534;BME280;32260;52.008;4.752;2023-03-11T03:09:37;100956.94;;;2.35;59.75
46534;BME280;32260;52.008;4.752;2023-03-11T03:12:04;100962.09;;;2.30;59.64
46534;BME280;32260;52.008;4.752;2023-03-11T03:14:30;100970.72;;;2.24;59.74
46534;BME280;32260;52.008;4.752;2023-03-11T03:16:56;100974.97;;;2.18;60.13
46534;BME280;32260;52.008;4.752;2023-03-11T03:19:23;100979.25;;;2.14;60.36
46534;BME280;32260;52.008;4.752;2023-03-11T03:21:49;100977.41;;;2.07;60.64
46534;BME280;32260;52.008;4.752;2023-03-11T03:24:15;100986.03;;;2.01;60.82
46534;BME280;32260;52.008;4.752;2023-03-11T03:26:41;100998.09;;;1.94;61.09
46534;BME280;32260;52.008;4.752;2023-03-11T03:29:07;100995.34;;;1.87;61.55
46534;BME280;32260;52.008;4.752;2023-03-11T03:31:33;100990.91;;;1.81;61.50
46534;BME280;32260;52.008;4.752;2023-03-11T03:33:59;100989.09;;;1.77;61.60
46534;BME280;32260;52.008;4.752;2023-03-11T03:36:25;101003.81;;;1.73;61.96
46534;BME280;32260;52.008;4.752;2023-03-11T03:38:55;101007.19;;;1.69;62.63
46534;BME280;32260;52.008;4.752;2023-03-11T03:41:24;101010.59;;;1.64;62.69
46534;BME280;32260;52.008;4.752;2023-03-11T03:43:51;101013.22;;;1.64;62.44
46534;BME280;32260;52.008;4.752;2023-03-11T03:46:18;101013.13;;;1.60;62.39
46534;BME280;32260;52.008;4.752;2023-03-11T03:48:44;101011.38;;;1.59;62.44
46534;BME280;32260;52.008;4.752;2023-03-11T03:51:12;101021.81;;;1.59;62.79
46534;BME280;32260;52.008;4.752;2023-03-11T03:53:39;101022.63;;;1.55;63.05
46534;BME280;32260;52.008;4.752;2023-03-11T03:56:07;101019.13;;;1.55;63.03
46534;BME280;32260;52.008;4.752;2023-03-11T03:58:34;101021.69;;;1.53;63.06
46534;BME280;32260;52.008;4.752;2023-03-11T04:01:00;101030.44;;;1.54;63.00
46534;BME280;32260;52.008;4.752;2023-03-11T04:03:27;101027.72;;;1.51;63.14
46534;BME280;32260;52.008;4.752;2023-03-11T04:05:54;101025.09;;;1.49;63.03
46534;BME280;32260;52.008;4.752;2023-03-11T04:08:29;101033.00;;;1.52;62.99
46534;BME280;32260;52.008;4.752;2023-03-11T04:10:56;101022.56;;;1.52;62.63
46534;BME280;32260;52.008;4.752;2023-03-11T04:13:23;101026.06;;;1.54;62.89
46534;BME280;32260;52.008;4.752;2023-03-11T04:15:49;101022.56;;;1.52;62.80
46534;BME280;32260;52.008;4.752;2023-03-11T04:18:15;101031.28;;;1.53;62.75
46534;BME280;32260;52.008;4.752;2023-03-11T04:20:41;101025.13;;;1.51;62.86
46534;BME280;32260;52.008;4.752;2023-03-11T04:23:07;101031.25;;;1.51;62.95
46534;BME280;32260;52.008;4.752;2023-03-11T04:25:33;101026.81;;;1.47;63.08
46534;BME280;32260;52.008;4.752;2023-03-11T04:27:59;101030.19;;;1.43;63.13
46534;BME280;32260;52.008;4.752;2023-03-11T04:30:26;101026.69;;;1.41;63.25
46534;BME280;32260;52.008;4.752;2023-03-11T04:32:52;101021.41;;;1.38;63.53
46534;BME280;32260;52.008;4.752;2023-03-11T04:35:18;101029.19;;;1.36;63.54
46534;BME280;32260;52.008;4.752;2023-03-11T04:37:44;101030.88;;;1.33;63.57
46534;BME280;32260;52.008;4.752;2023-03-11T04:40:10;101025.50;;;1.26;63.69
46534;BME280;32260;52.008;4.752;2023-03-11T04:42:37;101034.97;;;1.21;63.38
46534;BME280;32260;52.008;4.752;2023-03-11T04:45:04;101043.56;;;1.17;63.61
46534;BME280;32260;52.008;4.752;2023-03-11T04:47:31;101049.59;;;1.15;63.87
46534;BME280;32260;52.008;4.752;2023-03-11T04:49:57;101052.13;;;1.10;63.57
46534;BME280;32260;52.008;4.752;2023-03-11T04:52:23;101057.28;;;1.07;63.92
46534;BME280;32260;52.008;4.752;2023-03-11T04:54:49;101052.84;;;1.03;63.96
46534;BME280;32260;52.008;4.752;2023-03-11T04:57:15;101051.91;;;1.01;64.44
46534;BME280;32260;52.008;4.752;2023-03-11T04:59:41;101063.16;;;0.98;64.61
46534;BME280;32260;52.008;4.752;2023-03-11T05:02:07;101044.84;;;0.95;64.28
46534;BME280;32260;52.008;4.752;2023-03-11T05:04:33;101056.03;;;0.91;64.78
46534;BME280;32260;52.008;4.752;2023-03-11T05:06:59;101054.22;;;0.87;64.64
46534;BME280;32260;52.008;4.752;2023-03-11T05:09:25;101050.69;;;0.85;64.81
46534;BME280;32260;52.008;4.752;2023-03-11T05:11:52;101064.53;;;0.82;64.63
46534;BME280;32260;52.008;4.752;2023-03-11T05:14:18;101067.09;;;0.79;65.28
46534;BME280;32260;52.008;4.752;2023-03-11T05:16:44;101067.94;;;0.78;64.62
46534;BME280;32260;52.008;4.752;2023-03-11T05:19:10;101064.34;;;0.74;64.36
46534;BME280;32260;52.008;4.752;2023-03-11T05:21:56;101067.78;;;0.72;64.89
46534;BME280;32260;52.008;4.752;2023-03-11T05:24:22;101059.94;;;0.70;64.38
46534;BME280;32260;52.008;4.752;2023-03-11T05:26:51;101062.44;;;0.67;64.90
46534;BME280;32260;52.008;4.752;2023-03-11T05:29:17;101068.41;;;0.61;65.14
46534;BME280;32260;52.008;4.752;2023-03-11T05:31:44;101059.66;;;0.59;64.97
46534;BME280;32260;52.008;4.752;2023-03-11T05:34:10;101070.94;;;0.58;64.97
46534;BME280;32260;52.008;4.752;2023-03-11T05:36:36;101069.13;;;0.56;65.31
46534;BME280;32260;52.008;4.752;2023-03-11T05:39:02;101081.25;;;0.54;65.33
46534;BME280;32260;52.008;4.752;2023-03-11T05:41:28;101077.63;;;0.48;65.04
46534;BME280;32260;52.008;4.752;2023-03-11T05:43:54;101074.16;;;0.48;65.66
46534;BME280;32260;52.008;4.752;2023-03-11T05:46:21;101081.91;;;0.45;65.29
46534;BME280;32260;52.008;4.752;2023-03-11T05:48:47;101087.03;;;0.42;65.51
46534;BME280;32260;52.008;4.752;2023-03-11T05:51:13;101085.28;;;0.41;65.74
46534;BME280;32260;52.008;4.752;2023-03-11T05:53:42;101091.31;;;0.40;65.73
46534;BME280;32260;52.008;4.752;2023-03-11T05:56:14;101093.06;;;0.39;65.70
46534;BME280;32260;52.008;4.752;2023-03-11T05:58:40;101095.63;;;0.38;65.57
46534;BME280;32260;52.008;4.752;2023-03-11T06:01:08;101097.41;;;0.39;65.87
46534;BME280;32260;52.008;4.752;2023-03-11T06:03:38;101097.41;;;0.39;65.92
46534;BME280;32260;52.008;4.752;2023-03-11T06:06:06;101096.44;;;0.35;66.43
46534;BME280;32260;52.008;4.752;2023-03-11T06:08:33;101101.66;;;0.35;66.12
46534;BME280;32260;52.008;4.752;2023-03-11T06:11:03;101106.88;;;0.35;66.51
46534;BME280;32260;52.008;4.752;2023-03-11T06:13:29;101111.09;;;0.31;66.74
46534;BME280;32260;52.008;4.752;2023-03-11T06:15:56;101118.09;;;0.32;66.34
46534;BME280;32260;52.008;4.752;2023-03-11T06:18:22;101116.31;;;0.31;66.52
46534;BME280;32260;52.008;4.752;2023-03-11T06:20:51;101127.63;;;0.32;66.38
46534;BME280;32260;52.008;4.752;2023-03-11T06:23:21;101123.38;;;0.36;65.95
46534;BME280;32260;52.008;4.752;2023-03-11T06:25:55;101133.03;;;0.40;66.24
46534;BME280;32260;52.008;4.752;2023-03-11T06:28:21;101128.59;;;0.36;66.19
46534;BME280;32260;52.008;4.752;2023-03-11T06:30:48;101132.03;;;0.35;65.94
46534;BME280;32260;52.008;4.752;2023-03-11T06:33:14;101132.03;;;0.35;66.82
46534;BME280;32260;52.008;4.752;2023-03-11T06:35:40;101137.28;;;0.36;66.28
46534;BME280;32260;52.008;4.752;2023-03-11T06:38:06;101137.34;;;0.38;66.11
46534;BME280;32260;52.008;4.752;2023-03-11T06:40:36;101139.09;;;0.39;66.79
46534;BME280;32260;52.008;4.752;2023-03-11T06:43:03;101139.13;;;0.40;66.54
46534;BME280;32260;52.008;4.752;2023-03-11T06:45:29;101141.78;;;0.42;66.73
46534;BME280;32260;52.008;4.752;2023-03-11T06:47:55;101139.28;;;0.45;66.65
46534;BME280;32260;52.008;4.752;2023-03-11T06:50:21;101155.81;;;0.47;66.78
46534;BME280;32260;52.008;4.752;2023-03-11T06:52:48;101160.19;;;0.48;66.60
46534;BME280;32260;52.008;4.752;2023-03-11T06:55:15;101156.81;;;0.52;66.45
46534;BME280;32260;52.008;4.752;2023-03-11T06:57:43;101163.00;;;0.56;66.77
46534;BME280;32260;52.008;4.752;2023-03-11T07:00:10;101169.19;;;0.59;66.57
46534;BME280;32260;52.008;4.752;2023-03-11T07:02:37;101162.25;;;0.60;66.58
46534;BME280;32260;52.008;4.752;2023-03-11T07:05:03;101169.31;;;0.64;66.82
46534;BME280;32260;52.008;4.752;2023-03-11T07:07:30;101165.09;;;0.69;66.62
46534;BME280;32260;52.008;4.752;2023-03-11T07:09:56;101162.50;;;0.71;66.85
46534;BME280;32260;52.008;4.752;2023-03-11T07:12:23;101172.19;;;0.75;67.05
46534;BME280;32260;52.008;4.752;2023-03-11T07:14:54;101167.97;;;0.80;66.79
46534;BME280;32260;52.008;4.752;2023-03-11T07:17:24;101170.69;;;0.85;66.69
46534;BME280;32260;52.008;4.752;2023-03-11T07:19:50;101181.25;;;0.91;66.68
46534;BME280;32260;52.008;4.752;2023-03-11T07:22:16;101183.19;;;0.98;66.39
46534;BME280;32260;52.008;4.752;2023-03-11T07:24:47;101189.50;;;1.06;66.75
46534;BME280;32260;52.008;4.752;2023-03-11T07:27:14;101194.75;;;1.08;66.54
46534;BME280;32260;52.008;4.752;2023-03-11T07:29:40;101195.75;;;1.15;66.88
46534;BME280;32260;52.008;4.752;2023-03-11T07:32:09;101199.44;;;1.23;66.77
46534;BME280;32260;52.008;4.752;2023-03-11T07:34:35;101204.00;;;1.32;66.78
46534;BME280;32260;52.008;4.752;2023-03-11T07:37:05;101199.03;;;1.41;66.36
46534;BME280;32260;52.008;4.752;2023-03-11T07:39:31;101201.00;;;1.51;66.41
46534;BME280;32260;52.008;4.752;2023-03-11T07:41:57;101204.63;;;1.59;66.32
46534;BME280;32260;52.008;4.752;2023-03-11T07:44:23;101197.88;;;1.68;66.41
46534;BME280;32260;52.008;4.752;2023-03-11T07:46:49;101204.09;;;1.74;65.99
46534;BME280;32260;52.008;4.752;2023-03-11T07:49:15;101206.91;;;1.82;66.01
46534;BME280;32260;52.008;4.752;2023-03-11T07:51:41;101201.81;;;1.88;65.81
46534;BME280;32260;52.008;4.752;2023-03-11T07:54:10;101197.72;;;2.01;65.59
46534;BME280;32260;52.008;4.752;2023-03-11T07:56:36;101212.69;;;2.10;65.53
46534;BME280;32260;52.008;4.752;2023-03-11T07:59:04;101215.47;;;2.18;64.84
46534;BME280;32260;52.008;4.752;2023-03-11T08:01:31;101212.22;;;2.30;65.14
46534;BME280;32260;52.008;4.752;2023-03-11T08:04:03;101211.56;;;2.40;63.99
46534;BME280;32260;52.008;4.752;2023-03-11T08:06:32;101210.94;;;2.52;63.59
46534;BME280;32260;52.008;4.752;2023-03-11T08:09:00;101222.41;;;2.62;63.97
46534;BME280;32260;52.008;4.752;2023-03-11T08:11:27;101220.78;;;2.67;63.82
46534;BME280;32260;52.008;4.752;2023-03-11T08:13:53;101220.00;;;2.71;63.74
46534;BME280;32260;52.008;4.752;2023-03-11T08:16:20;101224.44;;;2.77;62.91
46534;BME280;32260;52.008;4.752;2023-03-11T08:18:48;101231.56;;;2.85;63.33
46534;BME280;32260;52.008;4.752;2023-03-11T08:21:17;101226.44;;;2.90;63.43
46534;BME280;32260;52.008;4.752;2023-03-11T08:23:44;101232.63;;;2.95;62.52
46534;BME280;32260;52.008;4.752;2023-03-11T08:26:14;101240.75;;;3.11;63.02
46534;BME280;32260;52.008;4.752;2023-03-11T08:28:41;101239.13;;;3.17;62.82
46534;BME280;32260;52.008;4.752;2023-03-11T08:31:25;101248.19;;;3.38;62.92
46534;BME280;32260;52.008;4.752;2023-03-11T08:33:54;101240.38;;;3.41;62.56
46534;BME280;32260;52.008;4.752;2023-03-11T08:36:20;101248.38;;;3.50;62.62
46534;BME280;32260;52.008;4.752;2023-03-11T08:38:47;101243.25;;;3.56;61.67
46534;BME280;32260;52.008;4.752;2023-03-11T08:41:14;101242.50;;;3.67;61.71
46534;BME280;32260;52.008;4.752;2023-03-11T08:43:41;101245.31;;;3.78;62.13
46534;BME280;32260;52.008;4.752;2023-03-11T08:46:07;101258.53;;;3.88;61.65
46534;BME280;32260;52.008;4.752;2023-03-11T08:48:35;101242.97;;;3.99;60.29
46534;BME280;32260;52.008;4.752;2023-03-11T08:51:07;101245.69;;;4.09;60.49
46534;BME280;32260;52.008;4.752;2023-03-11T08:53:33;101257.19;;;4.18;61.17
46534;BME280;32260;52.008;4.752;2023-03-11T08:56:00;101259.94;;;4.26;59.11
46534;BME280;32260;52.008;4.752;2023-03-11T08:58:26;101267.06;;;4.40;59.33
46534;BME280;32260;52.008;4.752;2023-03-11T09:00:52;101253.16;;;4.45;55.30
46534;BME280;32260;52.008;4.752;2023-03-11T09:03:18;101255.03;;;4.56;56.83
46534;BME280;32260;52.008;4.752;2023-03-11T09:05:44;101255.16;;;4.69;58.04
46534;BME280;32260;52.008;4.752;2023-03-11T09:08:10;101260.53;;;4.80;57.83
46534;BME280;32260;52.008;4.752;2023-03-11T09:10:37;101263.25;;;4.90;57.44
46534;BME280;32260;52.008;4.752;2023-03-11T09:13:03;101272.16;;;5.02;56.08
46534;BME280;32260;52.008;4.752;2023-03-11T09:15:29;101269.59;;;5.12;57.76
46534;BME280;32260;52.008;4.752;2023-03-11T09:17:55;101272.28;;;5.19;53.66
46534;BME280;32260;52.008;4.752;2023-03-11T09:20:21;101279.41;;;5.30;55.99
46534;BME280;32260;52.008;4.752;2023-03-11T09:22:48;101272.41;;;5.30;54.26
46534;BME280;32260;52.008;4.752;2023-03-11T09:25:14;101266.31;;;5.36;53.57
46534;BME280;32260;52.008;4.752;2023-03-11T09:27:40;101265.47;;;5.39;52.89
46534;BME280;32260;52.008;4.752;2023-03-11T09:30:07;101257.63;;;5.46;54.26
46534;BME280;32260;52.008;4.752;2023-03-11T09:32:34;101269.94;;;5.50;53.72
46534;BME280;32260;52.008;4.752;2023-03-11T09:35:00;101263.84;;;5.58;53.71
46534;BME280;32260;52.008;4.752;2023-03-11T09:37:26;101261.25;;;5.61;52.98
46534;BME280;32260;52.008;4.752;2023-03-11T09:39:54;101263.06;;;5.70;53.13
46534;BME280;32260;52.008;4.752;2023-03-11T09:42:32;101269.31;;;5.90;55.48
46534;BME280;32260;52.008;4.752;2023-03-11T09:45:05;101277.31;;;6.01;54.38
46534;BME280;32260;52.008;4.752;2023-03-11T09:47:44;101266.00;;;6.19;54.41
46534;BME280;32260;52.008;4.752;2023-03-11T09:50:49;101269.63;;;6.38;53.21
46534;BME280;32260;52.008;4.752;2023-03-11T09:56:05;101263.53;;;6.64;50.97
46534;BME280;32260;52.008;4.752;2023-03-11T10:01:16;101275.00;;;6.74;50.88
46534;BME280;32260;52.008;4.752;2023-03-11T10:03:45;101276.75;;;6.72;51.48
46534;BME280;32260;52.008;4.752;2023-03-11T10:08:59;101276.78;;;6.81;52.25
46534;BME280;32260;52.008;4.752;2023-03-11T10:17:44;101267.16;;;7.03;50.95
46534;BME280;32260;52.008;4.752;2023-03-11T10:23:11;101279.47;;;7.10;51.33
46534;BME280;32260;52.008;4.752;2023-03-11T10:28:19;101262.78;;;7.28;51.80
46534;BME280;32260;52.008;4.752;2023-03-11T10:30:52;101261.00;;;7.54;50.55
46534;BME280;32260;52.008;4.752;2023-03-11T10:36:04;101263.66;;;7.54;49.33
46534;BME280;32260;52.008;4.752;2023-03-11T10:38:34;101270.69;;;7.49;49.23
46534;BME280;32260;52.008;4.752;2023-03-11T10:41:10;101268.06;;;7.42;48.44
46534;BME280;32260;52.008;4.752;2023-03-11T10:43:44;101264.53;;;7.39;49.50
46534;BME280;32260;52.008;4.752;2023-03-11T10:46:19;101267.19;;;7.34;50.60
46534;BME280;32260;52.008;4.752;2023-03-11T10:48:46;101274.22;;;7.17;47.23
46534;BME280;32260;52.008;4.752;2023-03-11T10:51:17;101279.47;;;7.15;49.02
46534;BME280;32260;52.008;4.752;2023-03-11T10:53:50;101272.44;;;7.16;47.25
46534;BME280;32260;52.008;4.752;2023-03-11T10:56:27;101282.13;;;7.31;49.35
46534;BME280;32260;52.008;4.752;2023-03-11T10:58:53;101288.28;;;7.28;48.48
46534;BME280;32260;52.008;4.752;2023-03-11T11:01:20;101284.75;;;7.23;48.15
46534;BME280;32260;52.008;4.752;2023-03-11T11:03:49;101282.13;;;7.23;47.78
46534;BME280;32260;52.008;4.752;2023-03-11T11:06:26;101283.91;;;7.38;48.79
46534;BME280;32260;52.008;4.752;2023-03-11T11:12:02;101290.91;;;7.57;48.97
46534;BME280;32260;52.008;4.752;2023-03-11T11:14:49;101287.41;;;7.69;49.36
46534;BME280;32260;52.008;4.752;2023-03-11T11:19:57;101291.78;;;7.76;47.76
46534;BME280;32260;52.008;4.752;2023-03-11T11:22:25;101292.66;;;7.82;48.08
46534;BME280;32260;52.008;4.752;2023-03-11T11:24:53;101295.28;;;7.94;47.66
46534;BME280;32260;52.008;4.752;2023-03-11T11:27:22;101293.47;;;8.08;48.92
46534;BME280;32260;52.008;4.752;2023-03-11T11:30:14;101291.66;;;8.26;47.08
46534;BME280;32260;52.008;4.752;2023-03-11T11:32:41;101291.69;;;8.23;45.46
46534;BME280;32260;52.008;4.752;2023-03-11T11:35:12;101280.19;;;8.35;47.04
46534;BME280;32260;52.008;4.752;2023-03-11T11:37:47;101279.31;;;8.39;46.95
46534;BME280;32260;52.008;4.752;2023-03-11T11:45:56;101273.97;;;8.43;45.63
46534;BME280;32260;52.008;4.752;2023-03-11T11:48:34;101274.00;;;8.53;46.34
46534;BME280;32260;52.008;4.752;2023-03-11T11:51:15;101273.03;;;8.65;46.60
46534;BME280;32260;52.008;4.752;2023-03-11T11:56:29;101273.03;;;8.68;45.83
46534;BME280;32260;52.008;4.752;2023-03-11T11:58:55;101271.28;;;8.65;44.31
46534;BME280;32260;52.008;4.752;2023-03-11T12:07:50;101264.97;;;8.97;44.38
46534;BME280;32260;52.008;4.752;2023-03-11T12:17:50;101257.66;;;9.33;43.48
46534;BME280;32260;52.008;4.752;2023-03-11T12:20:29;101259.31;;;9.41;43.87
46534;BME280;32260;52.008;4.752;2023-03-11T12:23:19;101267.19;;;9.50;43.38
46534;BME280;32260;52.008;4.752;2023-03-11T12:28:53;101265.25;;;9.69;42.00
46534;BME280;32260;52.008;4.752;2023-03-11T12:31:23;101262.53;;;9.75;42.11
46534;BME280;32260;52.008;4.752;2023-03-11T12:34:01;101261.59;;;9.82;41.39
46534;BME280;32260;52.008;4.752;2023-03-11T12:36:32;101261.56;;;9.84;42.04
46534;BME280;32260;52.008;4.752;2023-03-11T12:39:02;101265.09;;;9.83;40.85
46534;BME280;32260;52.008;4.752;2023-03-11T12:49:42;101272.06;;;9.92;42.21
46534;BME280;32260;52.008;4.752;2023-03-11T12:54:48;101268.66;;;9.83;39.75
46534;BME280;32260;52.008;4.752;2023-03-11T12:57:46;101263.25;;;9.93;37.02
46534;BME280;32260;52.008;4.752;2023-03-11T13:00:54;101263.16;;;10.02;39.13
46534;BME280;32260;52.008;4.752;2023-03-11T13:08:56;101258.53;;;10.18;39.82
46534;BME280;32260;52.008;4.752;2023-03-11T13:11:43;101252.97;;;10.43;40.28
46534;BME280;32260;52.008;4.752;2023-03-11T13:16:51;101251.91;;;10.59;38.15
46534;BME280;32260;52.008;4.752;2023-03-11T13:19:34;101245.44;;;10.79;39.13
46534;BME280;32260;52.008;4.752;2023-03-11T13:22:05;101250.66;;;10.83;35.75
46534;BME280;32260;52.008;4.752;2023-03-11T13:24:52;101245.25;;;10.91;37.11
46534;BME280;32260;52.008;4.752;2023-03-11T13:27:31;101236.41;;;10.92;36.63
46534;BME280;32260;52.008;4.752;2023-03-11T13:32:58;101232.53;;;11.13;37.84
46534;BME280;32260;52.008;4.752;2023-03-11T13:35:53;101230.72;;;11.17;35.95
46534;BME280;32260;52.008;4.752;2023-03-11T13:38:51;101236.63;;;11.35;36.81
46534;BME280;32260;52.008;4.752;2023-03-11T13:41:26;101242.88;;;11.29;36.91
46534;BME280;32260;52.008;4.752;2023-03-11T13:43:59;101241.94;;;11.35;37.87
46534;BME280;32260;52.008;4.752;2023-03-11T13:46:33;101247.25;;;11.33;35.07
46534;BME280;32260;52.008;4.752;2023-03-11T13:49:10;101240.13;;;11.37;35.65
46534;BME280;32260;52.008;4.752;2023-03-11T13:51:42;101250.66;;;11.41;37.14
46534;BME280;32260;52.008;4.752;2023-03-11T13:56:55;101249.88;;;11.35;34.73
46534;BME280;32260;52.008;4.752;2023-03-11T13:59:26;101249.84;;;11.38;35.32
46534;BME280;32260;52.008;4.752;2023-03-11T14:02:17;101243.53;;;11.43;36.13
46534;BME280;32260;52.008;4.752;2023-03-11T14:04:50;101251.38;;;11.51;33.94
46534;BME280;32260;52.008;4.752;2023-03-11T14:10:17;101256.63;;;11.54;33.84
46534;BME280;32260;52.008;4.752;2023-03-11T14:12:44;101253.28;;;11.43;35.99
46534;BME280;32260;52.008;4.752;2023-03-11T14:15:26;101245.25;;;11.46;35.59
46534;BME280;32260;52.008;4.752;2023-03-11T14:17:53;101254.25;;;11.37;35.08
46534;BME280;32260;52.008;4.752;2023-03-11T14:20:39;101256.06;;;11.37;34.51
46534;BME280;32260;52.008;4.752;2023-03-11T14:23:16;101257.56;;;11.52;33.69
46534;BME280;32260;52.008;4.752;2023-03-11T14:25:43;101255.84;;;11.49;34.01
46534;BME280;32260;52.008;4.752;2023-03-11T14:28:18;101259.22;;;11.57;30.34
46534;BME280;32260;52.008;4.752;2023-03-11T14:31:01;101260.84;;;11.66;33.74
46534;BME280;32260;52.008;4.752;2023-03-11T14:33:28;101258.19;;;11.68;33.78
46534;BME280;32260;52.008;4.752;2023-03-11T14:35:58;101253.78;;;11.67;34.19
46534;BME280;32260;52.008;4.752;2023-03-11T14:38:27;101255.38;;;11.74;35.19
46534;BME280;32260;52.008;4.752;2023-03-11T14:40:59;101254.47;;;11.75;33.49
46534;BME280;32260;52.008;4.752;2023-03-11T14:43:26;101254.47;;;11.75;33.32